sensor_id;sensor_type;location;lat;lon;timestamp;temperature;humidity
22678;DHT22;26259;50.214;18.620;2022-12-18T00:01:21;-3.70;99.90
22678;DHT22;26259;50.214;18.620;2022-12-18T00:03:48;-3.60;99.90
22678;DHT22;26259;50.214;18.620;2022-12-18T00:06:14;-3.60;99.90
22678;DHT22;26259;50.214;18.620;2022-12-18T00:08:43;-3.60;99.90
22678;DHT22;26259;50.214;18.620;2022-12-18T00:11:15;-3.60;99.90
22678;DHT22;26259;50.214;18.620;2022-12-18T00:13:41;-3.60;99.90
22678;DHT22;26259;50.214;18.620;2022-12-18T00:16:10;-3.60;99.90
22678;DHT22;26259;50.214;18.620;2022-12-18T00:18:36;-3.60;99.90
22678;DHT22;26259;50.214;18.620;2022-12-18T00:21:04;-3.60;99.90
22678;DHT22;26259;50.214;18.620;2022-12-18T00:23:31;-3.60;99.90
22678;DHT22;26259;50.214;18.620;2022-12-18T00:26:01;-3.50;99.90
22678;DHT22;26259;50.214;18.620;2022-12-18T00:28:27;-3.60;99.90
22678;DHT22;26259;50.214;18.620;2022-12-18T00:31:10;-3.60;99.90
22678;DHT22;26259;50.214;18.620;2022-12-18T00:33:36;-3.60;99.90
22678;DHT22;26259;50.214;18.620;2022-12-18T00:36:10;-3.60;99.90
22678;DHT22;26259;50.214;18.620;2022-12-18T00:38:36;-3.60;99.90
22678;DHT22;26259;50.214;18.620;2022-12-18T00:41:02;-3.60;99.90
22678;DHT22;26259;50.214;18.620;2022-12-18T00:43:28;-3.60;99.90
22678;DHT22;26259;50.214;18.620;2022-12-18T00:45:53;-3.60;99.90
22678;DHT22;26259;50.214;18.620;2022-12-18T00:48:19;-3.60;99.90
22678;DHT22;26259;50.214;18.620;2022-12-18T00:50:47;-3.60;99.90
22678;DHT22;26259;50.214;18.620;2022-12-18T00:53:12;-3.60;99.90
22678;DHT22;26259;50.214;18.620;2022-12-18T00:55:42;-3.60;99.90
22678;DHT22;26259;50.214;18.620;2022-12-18T00:58:09;-3.60;99.90
22678;DHT22;26259;50.214;18.620;2022-12-18T01:00:35;-3.60;99.90
22678;DHT22;26259;50.214;18.620;2022-12-18T01:03:01;-3.60;99.90
22678;DHT22;26259;50.214;18.620;2022-12-18T01:05:26;-3.60;99.90
22678;DHT22;26259;50.214;18.620;2022-12-18T01:07:52;-3.60;99.90
22678;DHT22;26259;50.214;18.620;2022-12-18T01:10:18;-3.50;99.90
22678;DHT22;26259;50.214;18.620;2022-12-18T01:12:44;-3.50;99.90
22678;DHT22;26259;50.214;18.620;2022-12-18T01:15:12;-3.50;99.90
22678;DHT22;26259;50.214;18.620;2022-12-18T01:17:38;-3.50;99.90
22678;DHT22;26259;50.214;18.620;2022-12-18T01:20:04;-3.50;99.90
22678;DHT22;26259;50.214;18.620;2022-12-18T01:22:30;-3.50;99.90
22678;DHT22;26259;50.214;18.620;2022-12-18T01:24:58;-3.60;99.90
22678;DHT22;26259;50.214;18.620;2022-12-18T01:27:24;-3.60;99.90
22678;DHT22;26259;50.214;18.620;2022-12-18T01:29:50;-3.70;99.90
22678;DHT22;26259;50.214;18.620;2022-12-18T01:32:15;-3.70;99.90
22678;DHT22;26259;50.214;18.620;2022-12-18T01:34:41;-3.60;99.90
22678;DHT22;26259;50.214;18.620;2022-12-18T01:37:07;-3.60;99.90
22678;DHT22;26259;50.214;18.620;2022-12-18T01:39:32;-3.60;99.90
22678;DHT22;26259;50.214;18.620;2022-12-18T01:42:00;-3.60;99.90
22678;DHT22;26259;50.214;18.620;2022-12-18T01:47:38;-3.60;99.90
22678;DHT22;26259;50.214;18.620;2022-12-18T01:50:55;-3.60;99.90
22678;DHT22;26259;50.214;18.620;2022-12-18T01:53:11;-3.50;99.90
22678;DHT22;26259;50.214;18.620;2022-12-18T01:55:45;-3.50;99.90
22678;DHT22;26259;50.214;18.620;2022-12-18T01:58:12;-3.40;99.90
22678;DHT22;26259;50.214;18.620;2022-12-18T02:00:38;-3.40;99.90
22678;DHT22;26259;50.214;18.620;2022-12-18T02:03:04;-3.40;99.90
22678;DHT22;26259;50.214;18.620;2022-12-18T02:11:29;-3.50;99.90
22678;DHT22;26259;50.214;18.620;2022-12-18T02:14:08;-3.50;99.90
22678;DHT22;26259;50.214;18.620;2022-12-18T02:16:49;-3.40;99.90
22678;DHT22;26259;50.214;18.620;2022-12-18T02:19:47;-3.40;99.90
22678;DHT22;26259;50.214;18.620;2022-12-18T02:22:49;-3.40;99.90
22678;DHT22;26259;50.214;18.620;2022-12-18T02:28:24;-3.40;99.90
22678;DHT22;26259;50.214;18.620;2022-12-18T02:30:53;-3.40;99.90
22678;DHT22;26259;50.214;18.620;2022-12-18T02:33:21;-3.50;99.90
22678;DHT22;26259;50.214;18.620;2022-12-18T02:35:48;-3.50;99.90
22678;DHT22;26259;50.214;18.620;2022-12-18T02:38:15;-3.50;99.90
22678;DHT22;26259;50.214;18.620;2022-12-18T02:40:42;-3.50;99.90
22678;DHT22;26259;50.214;18.620;2022-12-18T02:43:11;-3.50;99.90
22678;DHT22;26259;50.214;18.620;2022-12-18T02:45:46;-3.50;99.90
22678;DHT22;26259;50.214;18.620;2022-12-18T02:48:13;-3.60;99.90
22678;DHT22;26259;50.214;18.620;2022-12-18T02:50:45;-3.60;99.90
22678;DHT22;26259;50.214;18.620;2022-12-18T02:55:52;-3.60;99.90
22678;DHT22;26259;50.214;18.620;2022-12-18T03:03:57;-3.60;99.90
22678;DHT22;26259;50.214;18.620;2022-12-18T03:06:32;-3.60;99.90
22678;DHT22;26259;50.214;18.620;2022-12-18T03:09:06;-3.60;99.90
22678;DHT22;26259;50.214;18.620;2022-12-18T03:11:34;-3.60;99.90
22678;DHT22;26259;50.214;18.620;2022-12-18T03:14:21;-3.60;99.90
22678;DHT22;26259;50.214;18.620;2022-12-18T03:16:51;-3.70;99.90
22678;DHT22;26259;50.214;18.620;2022-12-18T03:19:21;-3.70;99.90
22678;DHT22;26259;50.214;18.620;2022-12-18T03:21:50;-3.70;99.90
22678;DHT22;26259;50.214;18.620;2022-12-18T03:24:18;-3.70;99.90
22678;DHT22;26259;50.214;18.620;2022-12-18T03:26:48;-3.70;99.90
22678;DHT22;26259;50.214;18.620;2022-12-18T03:29:25;-3.70;99.90
22678;DHT22;26259;50.214;18.620;2022-12-18T03:32:00;-3.70;99.90
22678;DHT22;26259;50.214;18.620;2022-12-18T03:34:31;-3.70;99.90
22678;DHT22;26259;50.214;18.620;2022-12-18T03:36:58;-3.80;99.90
22678;DHT22;26259;50.214;18.620;2022-12-18T03:39:24;-3.80;99.90
22678;DHT22;26259;50.214;18.620;2022-12-18T03:50:27;-3.90;99.90
22678;DHT22;26259;50.214;18.620;2022-12-18T03:53:14;-4.00;99.90
22678;DHT22;26259;50.214;18.620;2022-12-18T03:55:43;-4.00;99.90
22678;DHT22;26259;50.214;18.620;2022-12-18T03:58:12;-4.00;99.90
22678;DHT22;26259;50.214;18.620;2022-12-18T04:00:41;-4.00;99.90
22678;DHT22;26259;50.214;18.620;2022-12-18T04:03:08;-4.00;99.90
22678;DHT22;26259;50.214;18.620;2022-12-18T04:05:35;-4.00;99.90
22678;DHT22;26259;50.214;18.620;2022-12-18T04:08:03;-4.00;99.90
22678;DHT22;26259;50.214;18.620;2022-12-18T04:10:29;-4.00;99.90
22678;DHT22;26259;50.214;18.620;2022-12-18T04:12:58;-4.00;99.90
22678;DHT22;26259;50.214;18.620;2022-12-18T04:15:24;-4.00;99.90
22678;DHT22;26259;50.214;18.620;2022-12-18T04:17:50;-4.00;99.90
22678;DHT22;26259;50.214;18.620;2022-12-18T04:20:16;-4.10;99.90
22678;DHT22;26259;50.214;18.620;2022-12-18T04:22:42;-4.10;99.90
22678;DHT22;26259;50.214;18.620;2022-12-18T04:25:11;-4.10;99.90
22678;DHT22;26259;50.214;18.620;2022-12-18T04:27:37;-4.00;99.90
22678;DHT22;26259;50.214;18.620;2022-12-18T04:30:03;-4.00;99.90
22678;DHT22;26259;50.214;18.620;2022-12-18T04:32:28;-4.00;99.90
22678;DHT22;26259;50.214;18.620;2022-12-18T04:34:54;-4.00;99.90
22678;DHT22;26259;50.214;18.620;2022-12-18T04:37:20;-4.00;99.90
22678;DHT22;26259;50.214;18.620;2022-12-18T04:39:46;-4.00;99.90
22678;DHT22;26259;50.214;18.620;2022-12-18T04:42:12;-4.10;99.90
22678;DHT22;26259;50.214;18.620;2022-12-18T04:44:37;-4.10;99.90
22678;DHT22;26259;50.214;18.620;2022-12-18T04:47:03;-4.00;99.90
22678;DHT22;26259;50.214;18.620;2022-12-18T04:49:29;-4.00;99.90
22678;DHT22;26259;50.214;18.620;2022-12-18T04:51:54;-4.00;99.90
22678;DHT22;26259;50.214;18.620;2022-12-18T04:54:20;-4.00;99.90
22678;DHT22;26259;50.214;18.620;2022-12-18T04:56:46;-4.00;99.90
22678;DHT22;26259;50.214;18.620;2022-12-18T04:59:11;-4.00;99.90
22678;DHT22;26259;50.214;18.620;2022-12-18T05:01:37;-3.90;99.90
22678;DHT22;26259;50.214;18.620;2022-12-18T05:04:03;-4.00;99.90
22678;DHT22;26259;50.214;18.620;2022-12-18T05:06:29;-4.00;99.90
22678;DHT22;26259;50.214;18.620;2022-12-18T05:08:54;-4.00;99.90
22678;DHT22;26259;50.214;18.620;2022-12-18T05:11:20;-4.00;99.90
22678;DHT22;26259;50.214;18.620;2022-12-18T05:13:46;-4.00;99.90
22678;DHT22;26259;50.214;18.620;2022-12-18T05:16:12;-3.90;99.90
22678;DHT22;26259;50.214;18.620;2022-12-18T05:18:38;-3.90;99.90
22678;DHT22;26259;50.214;18.620;2022-12-18T05:21:04;-4.00;99.90
22678;DHT22;26259;50.214;18.620;2022-12-18T05:23:29;-4.00;99.90
22678;DHT22;26259;50.214;18.620;2022-12-18T05:26:00;-4.00;99.90
22678;DHT22;26259;50.214;18.620;2022-12-18T05:28:28;-4.10;99.90
22678;DHT22;26259;50.214;18.620;2022-12-18T05:30:56;-4.00;99.90
22678;DHT22;26259;50.214;18.620;2022-12-18T05:33:23;-4.10;99.90
22678;DHT22;26259;50.214;18.620;2022-12-18T05:35:53;-4.00;99.90
22678;DHT22;26259;50.214;18.620;2022-12-18T05:38:20;-4.00;99.90
22678;DHT22;26259;50.214;18.620;2022-12-18T05:40:47;-4.00;99.90
22678;DHT22;26259;50.214;18.620;2022-12-18T05:43:13;-4.00;99.90
22678;DHT22;26259;50.214;18.620;2022-12-18T05:45:39;-3.90;99.90
22678;DHT22;26259;50.214;18.620;2022-12-18T05:48:06;-3.90;99.90
22678;DHT22;26259;50.214;18.620;2022-12-18T05:50:39;-3.90;99.90
22678;DHT22;26259;50.214;18.620;2022-12-18T05:53:05;-3.90;99.90
22678;DHT22;26259;50.214;18.620;2022-12-18T05:55:35;-3.90;99.90
22678;DHT22;26259;50.214;18.620;2022-12-18T05:58:02;-3.90;99.90
22678;DHT22;26259;50.214;18.620;2022-12-18T06:00:27;-3.80;99.90
22678;DHT22;26259;50.214;18.620;2022-12-18T06:02:53;-3.80;99.90
22678;DHT22;26259;50.214;18.620;2022-12-18T06:05:19;-3.80;99.90
22678;DHT22;26259;50.214;18.620;2022-12-18T06:07:44;-3.90;99.90
22678;DHT22;26259;50.214;18.620;2022-12-18T06:10:10;-3.90;99.90
22678;DHT22;26259;50.214;18.620;2022-12-18T06:12:37;-3.90;99.90
22678;DHT22;26259;50.214;18.620;2022-12-18T06:15:02;-3.90;99.90
22678;DHT22;26259;50.214;18.620;2022-12-18T06:17:33;-3.90;99.90
22678;DHT22;26259;50.214;18.620;2022-12-18T06:19:59;-3.90;99.90
22678;DHT22;26259;50.214;18.620;2022-12-18T06:22:25;-3.90;99.90
22678;DHT22;26259;50.214;18.620;2022-12-18T06:24:50;-3.80;99.90
22678;DHT22;26259;50.214;18.620;2022-12-18T06:27:16;-3.80;99.90
22678;DHT22;26259;50.214;18.620;2022-12-18T06:29:42;-3.80;99.90
22678;DHT22;26259;50.214;18.620;2022-12-18T06:32:07;-3.80;99.90
22678;DHT22;26259;50.214;18.620;2022-12-18T06:34:33;-3.80;99.90
22678;DHT22;26259;50.214;18.620;2022-12-18T06:36:59;-3.80;99.90
22678;DHT22;26259;50.214;18.620;2022-12-18T06:39:26;-3.80;99.90
22678;DHT22;26259;50.214;18.620;2022-12-18T06:41:52;-3.80;99.90
22678;DHT22;26259;50.214;18.620;2022-12-18T06:44:18;-3.90;99.90
22678;DHT22;26259;50.214;18.620;2022-12-18T06:46:43;-3.90;99.90
22678;DHT22;26259;50.214;18.620;2022-12-18T06:49:09;-3.90;99.90
22678;DHT22;26259;50.214;18.620;2022-12-18T06:51:35;-3.90;99.90
22678;DHT22;26259;50.214;18.620;2022-12-18T06:54:01;-3.80;99.90
22678;DHT22;26259;50.214;18.620;2022-12-18T06:56:26;-3.90;99.90
22678;DHT22;26259;50.214;18.620;2022-12-18T06:58:53;-3.90;99.90
22678;DHT22;26259;50.214;18.620;2022-12-18T07:01:20;-3.80;99.90
22678;DHT22;26259;50.214;18.620;2022-12-18T07:03:46;-3.80;99.90
22678;DHT22;26259;50.214;18.620;2022-12-18T07:06:17;-3.80;99.90
22678;DHT22;26259;50.214;18.620;2022-12-18T07:08:43;-3.70;99.90
22678;DHT22;26259;50.214;18.620;2022-12-18T07:11:09;-3.70;99.90
22678;DHT22;26259;50.214;18.620;2022-12-18T07:13:34;-3.70;99.90
22678;DHT22;26259;50.214;18.620;2022-12-18T07:16:07;-3.70;99.90
22678;DHT22;26259;50.214;18.620;2022-12-18T07:18:33;-3.60;99.90
22678;DHT22;26259;50.214;18.620;2022-12-18T07:21:03;-3.60;99.90
22678;DHT22;26259;50.214;18.620;2022-12-18T07:23:30;-3.50;99.90
22678;DHT22;26259;50.214;18.620;2022-12-18T07:26:08;-3.50;99.90
22678;DHT22;26259;50.214;18.620;2022-12-18T07:28:34;-3.50;99.90
22678;DHT22;26259;50.214;18.620;2022-12-18T07:31:11;-3.50;99.90
22678;DHT22;26259;50.214;18.620;2022-12-18T07:33:37;-3.50;99.90
22678;DHT22;26259;50.214;18.620;2022-12-18T07:36:05;-3.50;99.90
22678;DHT22;26259;50.214;18.620;2022-12-18T07:38:32;-3.50;99.90
22678;DHT22;26259;50.214;18.620;2022-12-18T07:41:05;-3.40;99.90
22678;DHT22;26259;50.214;18.620;2022-12-18T07:43:31;-3.40;99.90
22678;DHT22;26259;50.214;18.620;2022-12-18T07:45:56;-3.40;99.90
22678;DHT22;26259;50.214;18.620;2022-12-18T07:48:22;-3.30;99.90
22678;DHT22;26259;50.214;18.620;2022-12-18T07:50:47;-3.20;99.90
22678;DHT22;26259;50.214;18.620;2022-12-18T07:53:13;-3.20;99.90
22678;DHT22;26259;50.214;18.620;2022-12-18T07:55:40;-3.20;99.90
22678;DHT22;26259;50.214;18.620;2022-12-18T07:58:07;-3.10;99.90
22678;DHT22;26259;50.214;18.620;2022-12-18T08:00:33;-3.10;99.90
22678;DHT22;26259;50.214;18.620;2022-12-18T08:02:59;-3.10;99.90
22678;DHT22;26259;50.214;18.620;2022-12-18T08:05:25;-3.00;99.90
22678;DHT22;26259;50.214;18.620;2022-12-18T08:07:51;-3.00;99.90
22678;DHT22;26259;50.214;18.620;2022-12-18T08:10:17;-2.90;99.90
22678;DHT22;26259;50.214;18.620;2022-12-18T08:12:42;-2.90;99.90
22678;DHT22;26259;50.214;18.620;2022-12-18T08:15:08;-2.90;99.90
22678;DHT22;26259;50.214;18.620;2022-12-18T08:17:34;-2.80;99.90
22678;DHT22;26259;50.214;18.620;2022-12-18T08:19:59;-2.70;99.90
22678;DHT22;26259;50.214;18.620;2022-12-18T08:22:25;-2.80;99.90
22678;DHT22;26259;50.214;18.620;2022-12-18T08:24:51;-2.90;99.90
22678;DHT22;26259;50.214;18.620;2022-12-18T08:27:16;-3.00;99.90
22678;DHT22;26259;50.214;18.620;2022-12-18T08:29:42;-3.10;99.90
22678;DHT22;26259;50.214;18.620;2022-12-18T08:32:07;-3.20;99.90
22678;DHT22;26259;50.214;18.620;2022-12-18T08:34:33;-3.30;99.90
22678;DHT22;26259;50.214;18.620;2022-12-18T08:36:59;-3.30;99.90
22678;DHT22;26259;50.214;18.620;2022-12-18T08:39:25;-3.40;99.90
22678;DHT22;26259;50.214;18.620;2022-12-18T08:41:50;-3.50;99.90
22678;DHT22;26259;50.214;18.620;2022-12-18T08:44:34;-3.40;99.90
22678;DHT22;26259;50.214;18.620;2022-12-18T08:47:03;-3.40;99.90
22678;DHT22;26259;50.214;18.620;2022-12-18T08:49:29;-3.30;99.90
22678;DHT22;26259;50.214;18.620;2022-12-18T08:51:56;-3.20;99.90
22678;DHT22;26259;50.214;18.620;2022-12-18T08:54:25;-3.20;99.90
22678;DHT22;26259;50.214;18.620;2022-12-18T08:56:51;-3.20;99.90
22678;DHT22;26259;50.214;18.620;2022-12-18T08:59:18;-3.20;99.90
22678;DHT22;26259;50.214;18.620;2022-12-18T09:01:43;-3.10;99.90
22678;DHT22;26259;50.214;18.620;2022-12-18T09:04:09;-3.00;99.90
22678;DHT22;26259;50.214;18.620;2022-12-18T09:06:35;-3.00;99.90
22678;DHT22;26259;50.214;18.620;2022-12-18T09:09:02;-2.90;99.90
22678;DHT22;26259;50.214;18.620;2022-12-18T09:11:28;-2.90;99.90
22678;DHT22;26259;50.214;18.620;2022-12-18T09:13:54;-2.80;99.90
22678;DHT22;26259;50.214;18.620;2022-12-18T09:16:21;-2.60;99.90
22678;DHT22;26259;50.214;18.620;2022-12-18T09:18:48;-2.60;99.90
22678;DHT22;26259;50.214;18.620;2022-12-18T09:21:16;-2.50;99.90
22678;DHT22;26259;50.214;18.620;2022-12-18T09:23:42;-2.50;99.90
22678;DHT22;26259;50.214;18.620;2022-12-18T09:26:08;-2.50;99.90
22678;DHT22;26259;50.214;18.620;2022-12-18T09:28:34;-2.40;99.90
22678;DHT22;26259;50.214;18.620;2022-12-18T09:31:04;-2.30;99.90
22678;DHT22;26259;50.214;18.620;2022-12-18T09:33:31;-2.20;99.90
22678;DHT22;26259;50.214;18.620;2022-12-18T09:35:57;-2.30;99.90
22678;DHT22;26259;50.214;18.620;2022-12-18T09:38:22;-2.40;99.90
22678;DHT22;26259;50.214;18.620;2022-12-18T09:40:53;-2.40;99.90
22678;DHT22;26259;50.214;18.620;2022-12-18T09:43:57;-2.30;99.90
22678;DHT22;26259;50.214;18.620;2022-12-18T09:46:21;-2.20;99.90
22678;DHT22;26259;50.214;18.620;2022-12-18T09:48:52;-2.20;99.90
22678;DHT22;26259;50.214;18.620;2022-12-18T09:51:23;-2.20;99.90
22678;DHT22;26259;50.214;18.620;2022-12-18T09:53:55;-2.20;99.90
22678;DHT22;26259;50.214;18.620;2022-12-18T09:56:25;-2.20;99.90
22678;DHT22;26259;50.214;18.620;2022-12-18T09:58:59;-2.10;99.90
22678;DHT22;26259;50.214;18.620;2022-12-18T10:01:25;-2.10;99.90
22678;DHT22;26259;50.214;18.620;2022-12-18T10:03:52;-1.90;99.90
22678;DHT22;26259;50.214;18.620;2022-12-18T10:15:13;-1.70;99.90
22678;DHT22;26259;50.214;18.620;2022-12-18T10:20:53;-1.60;99.90
22678;DHT22;26259;50.214;18.620;2022-12-18T10:26:22;-1.60;99.90
22678;DHT22;26259;50.214;18.620;2022-12-18T10:28:48;-1.70;99.90
22678;DHT22;26259;50.214;18.620;2022-12-18T10:31:18;-1.70;99.90
22678;DHT22;26259;50.214;18.620;2022-12-18T10:33:44;-1.70;99.90
22678;DHT22;26259;50.214;18.620;2022-12-18T10:36:09;-1.60;99.90
22678;DHT22;26259;50.214;18.620;2022-12-18T10:38:35;-1.60;99.90
22678;DHT22;26259;50.214;18.620;2022-12-18T10:43:32;-1.70;99.90
22678;DHT22;26259;50.214;18.620;2022-12-18T10:48:55;-1.80;99.90
22678;DHT22;26259;50.214;18.620;2022-12-18T10:51:27;-1.70;99.90
22678;DHT22;26259;50.214;18.620;2022-12-18T10:54:05;-1.60;99.90
22678;DHT22;26259;50.214;18.620;2022-12-18T10:56:34;-1.50;99.90
22678;DHT22;26259;50.214;18.620;2022-12-18T10:59:03;-1.50;99.90
22678;DHT22;26259;50.214;18.620;2022-12-18T11:04:34;-1.50;99.90
22678;DHT22;26259;50.214;18.620;2022-12-18T11:07:05;-1.40;99.90
22678;DHT22;26259;50.214;18.620;2022-12-18T11:09:39;-1.50;99.90
22678;DHT22;26259;50.214;18.620;2022-12-18T11:12:15;-1.50;99.90
22678;DHT22;26259;50.214;18.620;2022-12-18T11:14:47;-1.50;99.90
22678;DHT22;26259;50.214;18.620;2022-12-18T11:17:20;-1.50;99.90
22678;DHT22;26259;50.214;18.620;2022-12-18T11:19:55;-1.40;99.90
22678;DHT22;26259;50.214;18.620;2022-12-18T11:22:30;-1.40;99.90
22678;DHT22;26259;50.214;18.620;2022-12-18T11:27:28;-1.40;99.90
22678;DHT22;26259;50.214;18.620;2022-12-18T11:32:48;-1.50;99.90
22678;DHT22;26259;50.214;18.620;2022-12-18T11:36:08;-1.50;99.90
22678;DHT22;26259;50.214;18.620;2022-12-18T11:38:24;-1.50;99.90
22678;DHT22;26259;50.214;18.620;2022-12-18T11:41:04;-1.70;99.90
22678;DHT22;26259;50.214;18.620;2022-12-18T11:43:54;-1.70;99.90
22678;DHT22;26259;50.214;18.620;2022-12-18T11:46:33;-1.70;99.90
22678;DHT22;26259;50.214;18.620;2022-12-18T11:49:06;-1.70;99.90
22678;DHT22;26259;50.214;18.620;2022-12-18T11:51:43;-1.80;99.90
22678;DHT22;26259;50.214;18.620;2022-12-18T11:54:14;-1.90;99.90
22678;DHT22;26259;50.214;18.620;2022-12-18T11:56:48;-1.90;99.90
22678;DHT22;26259;50.214;18.620;2022-12-18T11:59:59;-1.90;99.90
22678;DHT22;26259;50.214;18.620;2022-12-18T12:05:46;-1.90;99.90
22678;DHT22;26259;50.214;18.620;2022-12-18T12:11:40;-2.10;99.90
22678;DHT22;26259;50.214;18.620;2022-12-18T12:28:54;-2.20;99.90
22678;DHT22;26259;50.214;18.620;2022-12-18T12:33:56;-2.20;99.90
22678;DHT22;26259;50.214;18.620;2022-12-18T12:37:06;-2.20;99.90
22678;DHT22;26259;50.214;18.620;2022-12-18T12:39:38;-2.20;99.90
22678;DHT22;26259;50.214;18.620;2022-12-18T12:42:13;-2.10;99.90
22678;DHT22;26259;50.214;18.620;2022-12-18T12:45:02;-2.10;99.90
22678;DHT22;26259;50.214;18.620;2022-12-18T12:47:33;-2.10;99.90
22678;DHT22;26259;50.214;18.620;2022-12-18T12:50:01;-2.20;99.90
22678;DHT22;26259;50.214;18.620;2022-12-18T12:52:37;-2.20;99.90
22678;DHT22;26259;50.214;18.620;2022-12-18T12:55:07;-2.20;99.90
22678;DHT22;26259;50.214;18.620;2022-12-18T12:57:41;-2.30;99.90
22678;DHT22;26259;50.214;18.620;2022-12-18T13:00:15;-2.40;99.90
22678;DHT22;26259;50.214;18.620;2022-12-18T13:03:01;-2.50;99.90
22678;DHT22;26259;50.214;18.620;2022-12-18T13:05:54;-2.50;99.90
22678;DHT22;26259;50.214;18.620;2022-12-18T13:08:53;-2.60;99.90
22678;DHT22;26259;50.214;18.620;2022-12-18T13:14:40;-2.70;99.90
22678;DHT22;26259;50.214;18.620;2022-12-18T13:19:52;-2.80;99.90
22678;DHT22;26259;50.214;18.620;2022-12-18T13:22:46;-2.80;99.90
22678;DHT22;26259;50.214;18.620;2022-12-18T13:25:32;-2.90;99.90
22678;DHT22;26259;50.214;18.620;2022-12-18T13:28:05;-2.90;99.90
22678;DHT22;26259;50.214;18.620;2022-12-18T13:38:23;-3.20;99.90
22678;DHT22;26259;50.214;18.620;2022-12-18T13:43:31;-3.30;99.90
22678;DHT22;26259;50.214;18.620;2022-12-18T13:48:55;-3.50;99.90
22678;DHT22;26259;50.214;18.620;2022-12-18T13:51:22;-3.50;99.90
22678;DHT22;26259;50.214;18.620;2022-12-18T13:53:58;-3.60;99.90
22678;DHT22;26259;50.214;18.620;2022-12-18T13:56:29;-3.70;99.90
22678;DHT22;26259;50.214;18.620;2022-12-18T13:59:15;-3.80;99.90
22678;DHT22;26259;50.214;18.620;2022-12-18T14:01:47;-3.90;99.90
22678;DHT22;26259;50.214;18.620;2022-12-18T14:04:25;-4.00;99.90
22678;DHT22;26259;50.214;18.620;2022-12-18T14:07:22;-4.10;99.90
22678;DHT22;26259;50.214;18.620;2022-12-18T14:09:56;-4.30;99.90
22678;DHT22;26259;50.214;18.620;2022-12-18T14:12:30;-4.40;99.90
22678;DHT22;26259;50.214;18.620;2022-12-18T14:17:58;-4.70;99.90
22678;DHT22;26259;50.214;18.620;2022-12-18T14:20:25;-4.80;99.90
22678;DHT22;26259;50.214;18.620;2022-12-18T14:22:52;-4.90;99.90
22678;DHT22;26259;50.214;18.620;2022-12-18T14:25:26;-5.10;99.90
22678;DHT22;26259;50.214;18.620;2022-12-18T14:30:39;-5.30;99.90
22678;DHT22;26259;50.214;18.620;2022-12-18T14:35:42;-5.60;99.90
22678;DHT22;26259;50.214;18.620;2022-12-18T14:38:32;-5.70;99.90
22678;DHT22;26259;50.214;18.620;2022-12-18T14:43:31;-6.00;99.90
22678;DHT22;26259;50.214;18.620;2022-12-18T14:45:57;-6.20;99.90
22678;DHT22;26259;50.214;18.620;2022-12-18T14:48:35;-6.30;99.90
22678;DHT22;26259;50.214;18.620;2022-12-18T14:51:04;-6.40;99.90
22678;DHT22;26259;50.214;18.620;2022-12-18T14:53:37;-6.50;99.90
22678;DHT22;26259;50.214;18.620;2022-12-18T14:58:46;-6.80;99.90
22678;DHT22;26259;50.214;18.620;2022-12-18T15:02:38;-7.00;99.90
22678;DHT22;26259;50.214;18.620;2022-12-18T15:04:35;-7.10;99.90
22678;DHT22;26259;50.214;18.620;2022-12-18T15:07:22;-7.20;99.90
22678;DHT22;26259;50.214;18.620;2022-12-18T15:10:12;-7.40;99.90
22678;DHT22;26259;50.214;18.620;2022-12-18T15:12:42;-7.50;99.90
22678;DHT22;26259;50.214;18.620;2022-12-18T15:18:21;-7.70;99.90
22678;DHT22;26259;50.214;18.620;2022-12-18T15:20:51;-7.90;99.90
22678;DHT22;26259;50.214;18.620;2022-12-18T15:26:08;-8.00;99.90
22678;DHT22;26259;50.214;18.620;2022-12-18T15:28:55;-8.20;99.90
22678;DHT22;26259;50.214;18.620;2022-12-18T15:31:33;-8.20;99.90
22678;DHT22;26259;50.214;18.620;2022-12-18T15:34:04;-8.30;99.90
22678;DHT22;26259;50.214;18.620;2022-12-18T15:36:30;-8.40;99.90
22678;DHT22;26259;50.214;18.620;2022-12-18T15:38:57;-8.50;99.90
22678;DHT22;26259;50.214;18.620;2022-12-18T15:41:23;-8.60;99.90
22678;DHT22;26259;50.214;18.620;2022-12-18T15:43:51;-8.70;99.90
22678;DHT22;26259;50.214;18.620;2022-12-18T15:46:22;-8.70;99.90
22678;DHT22;26259;50.214;18.620;2022-12-18T15:48:50;-8.80;99.90
22678;DHT22;26259;50.214;18.620;2022-12-18T15:51:32;-9.00;99.90
22678;DHT22;26259;50.214;18.620;2022-12-18T15:53:59;-9.00;99.90
22678;DHT22;26259;50.214;18.620;2022-12-18T15:56:26;-9.10;99.90
22678;DHT22;26259;50.214;18.620;2022-12-18T15:59:12;-9.20;99.90
22678;DHT22;26259;50.214;18.620;2022-12-18T16:01:38;-9.30;99.90
22678;DHT22;26259;50.214;18.620;2022-12-18T16:04:03;-9.40;99.90
22678;DHT22;26259;50.214;18.620;2022-12-18T16:06:29;-9.40;99.90
22678;DHT22;26259;50.214;18.620;2022-12-18T16:08:55;-9.50;99.90
22678;DHT22;26259;50.214;18.620;2022-12-18T16:11:27;-9.50;99.90
22678;DHT22;26259;50.214;18.620;2022-12-18T16:14:26;-9.60;99.90
22678;DHT22;26259;50.214;18.620;2022-12-18T16:16:58;-9.70;99.90
22678;DHT22;26259;50.214;18.620;2022-12-18T16:19:24;-9.80;99.90
22678;DHT22;26259;50.214;18.620;2022-12-18T16:21:52;-9.90;99.90
22678;DHT22;26259;50.214;18.620;2022-12-18T16:24:20;-10.00;99.90
22678;DHT22;26259;50.214;18.620;2022-12-18T16:26:47;-10.00;99.90
22678;DHT22;26259;50.214;18.620;2022-12-18T16:29:14;-10.10;99.90
22678;DHT22;26259;50.214;18.620;2022-12-18T16:31:40;-10.10;99.90
22678;DHT22;26259;50.214;18.620;2022-12-18T16:34:23;-10.20;99.90
22678;DHT22;26259;50.214;18.620;2022-12-18T16:36:51;-10.30;99.90
22678;DHT22;26259;50.214;18.620;2022-12-18T16:39:19;-10.40;99.90
22678;DHT22;26259;50.214;18.620;2022-12-18T16:41:44;-10.50;99.90
22678;DHT22;26259;50.214;18.620;2022-12-18T16:44:10;-10.60;99.90
22678;DHT22;26259;50.214;18.620;2022-12-18T16:46:37;-10.60;99.90
22678;DHT22;26259;50.214;18.620;2022-12-18T16:49:03;-10.70;99.90
22678;DHT22;26259;50.214;18.620;2022-12-18T16:51:28;-10.80;99.90
22678;DHT22;26259;50.214;18.620;2022-12-18T16:53:55;-10.80;99.90
22678;DHT22;26259;50.214;18.620;2022-12-18T16:56:24;-10.90;99.90
22678;DHT22;26259;50.214;18.620;2022-12-18T16:58:54;-11.00;99.90
22678;DHT22;26259;50.214;18.620;2022-12-18T17:01:21;-11.00;99.90
22678;DHT22;26259;50.214;18.620;2022-12-18T17:03:54;-11.10;99.90
22678;DHT22;26259;50.214;18.620;2022-12-18T17:06:24;-11.10;99.90
22678;DHT22;26259;50.214;18.620;2022-12-18T17:08:57;-11.20;99.90
22678;DHT22;26259;50.214;18.620;2022-12-18T17:11:24;-11.20;99.90
22678;DHT22;26259;50.214;18.620;2022-12-18T17:13:50;-11.20;99.90
22678;DHT22;26259;50.214;18.620;2022-12-18T17:16:16;-11.30;99.90
22678;DHT22;26259;50.214;18.620;2022-12-18T17:18:42;-11.30;99.90
22678;DHT22;26259;50.214;18.620;2022-12-18T17:21:09;-11.40;99.90
22678;DHT22;26259;50.214;18.620;2022-12-18T17:23:34;-11.40;99.90
22678;DHT22;26259;50.214;18.620;2022-12-18T17:26:01;-11.40;99.90
22678;DHT22;26259;50.214;18.620;2022-12-18T17:28:27;-11.40;99.90
22678;DHT22;26259;50.214;18.620;2022-12-18T17:30:54;-11.50;99.90
22678;DHT22;26259;50.214;18.620;2022-12-18T17:33:20;-11.50;99.90